createdAt,value
2019-04-02T00:00:28.300Z,988.32
2019-04-02T00:01:28.316Z,988.32
2019-04-02T00:02:28.325Z,988.31
2019-04-02T00:03:26.826Z,988.28
2019-04-02T00:04:27.033Z,988.26
2019-04-02T00:05:28.819Z,988.24
2019-04-02T00:06:27.385Z,988.23
2019-04-02T00:07:28.988Z,988.19
2019-04-02T00:08:31.299Z,988.21
2019-04-02T00:09:35.809Z,988.22
2019-04-02T00:10:39.834Z,988.24
2019-04-02T00:11:29.307Z,988.17
2019-04-02T00:12:30.310Z,988.14
2019-04-02T00:13:30.320Z,988.19
2019-04-02T00:14:32.296Z,988.17
2019-04-02T00:15:30.800Z,988.14
2019-04-02T00:16:32.799Z,988.15
2019-04-02T00:17:29.257Z,988.15
2019-04-02T00:18:32.346Z,988.08
2019-04-02T00:19:31.299Z,988.16
2019-04-02T00:20:29.886Z,988.16
2019-04-02T00:21:31.236Z,988.10
2019-04-02T00:22:33.811Z,988.05
2019-04-02T00:23:32.322Z,988.07
2019-04-02T00:24:30.625Z,988.07
2019-04-02T00:25:32.807Z,988.08
2019-04-02T00:26:31.002Z,988.06
2019-04-02T00:27:34.797Z,988.03
2019-04-02T00:28:31.387Z,988.00
2019-04-02T00:29:35.318Z,987.96
2019-04-02T00:30:33.306Z,987.95
2019-04-02T00:31:32.047Z,987.93
2019-04-02T00:32:33.811Z,987.95
2019-04-02T00:33:32.273Z,987.92
2019-04-02T00:34:32.511Z,987.90
2019-04-02T00:35:35.237Z,987.85
2019-04-02T00:36:32.760Z,987.88
2019-04-02T00:37:32.966Z,987.85
2019-04-02T00:38:35.319Z,987.87
2019-04-02T00:39:35.389Z,987.84
2019-04-02T00:40:35.300Z,987.84
2019-04-02T00:41:33.758Z,987.83
2019-04-02T00:42:35.799Z,987.79
2019-04-02T00:43:34.129Z,987.82
2019-04-02T00:44:38.304Z,987.81
2019-04-02T00:45:36.300Z,987.83
2019-04-02T00:46:36.304Z,987.79
2019-04-02T00:47:36.314Z,987.78
2019-04-02T00:48:36.807Z,987.80
2019-04-02T00:49:38.810Z,987.78
2019-04-02T00:50:38.817Z,987.76
2019-04-02T00:51:39.299Z,987.75
2019-04-02T00:52:37.301Z,987.74
2019-04-02T00:53:35.746Z,987.72
2019-04-02T00:54:39.797Z,987.69
2019-04-02T00:55:36.141Z,987.72
2019-04-02T00:56:37.845Z,987.67
2019-04-02T00:57:38.302Z,987.73
2019-04-02T00:58:37.633Z,987.67
2019-04-02T00:59:37.876Z,987.62
2019-04-02T01:00:37.971Z,987.61
2019-04-02T01:01:52.817Z,987.60
2019-04-02T01:02:41.314Z,987.58
2019-04-02T01:03:37.503Z,987.57
2019-04-02T01:04:41.298Z,987.55
2019-04-02T01:05:37.866Z,987.57
2019-04-02T01:06:39.816Z,987.55
2019-04-02T01:07:39.797Z,987.56
2019-04-02T01:08:38.412Z,987.56
2019-04-02T01:09:40.301Z,987.58
2019-04-02T01:10:42.297Z,987.56
2019-04-02T01:11:40.809Z,987.55
2019-04-02T01:12:40.802Z,987.59
2019-04-02T01:13:54.805Z,987.55
2019-04-02T01:14:39.522Z,987.59
2019-04-02T01:15:41.297Z,987.57
2019-04-02T01:16:42.109Z,987.57
2019-04-02T01:17:51.845Z,987.54
2019-04-02T01:19:01.073Z,987.54
2019-04-02T01:19:47.802Z,987.51
2019-04-02T01:20:40.509Z,987.53
2019-04-02T01:21:48.341Z,987.52
2019-04-02T01:22:44.798Z,987.49
2019-04-02T01:23:42.795Z,987.48
2019-04-02T01:24:41.249Z,987.48
2019-04-02T01:25:41.451Z,987.50
2019-04-02T01:26:41.647Z,987.46
2019-04-02T01:27:41.847Z,987.44
2019-04-02T01:28:42.060Z,987.43
2019-04-02T01:29:43.273Z,987.38
2019-04-02T01:30:45.235Z,987.40
2019-04-02T01:31:44.681Z,987.45
2019-04-02T01:32:42.778Z,987.40
2019-04-02T01:33:43.975Z,987.37
2019-04-02T01:34:44.813Z,987.37
2019-04-02T01:35:43.245Z,987.35
2019-04-02T01:36:43.452Z,987.28
2019-04-02T01:37:46.093Z,987.29
2019-04-02T01:38:43.859Z,987.29
2019-04-02T01:39:45.803Z,987.29
2019-04-02T01:40:51.804Z,987.30
2019-04-02T01:41:44.408Z,987.31
2019-04-02T01:42:48.328Z,987.30
2019-04-02T01:43:46.299Z,987.28
2019-04-02T01:44:45.021Z,987.26
2019-04-02T01:46:00.797Z,987.24
2019-04-02T01:46:47.293Z,987.25
2019-04-02T01:47:45.374Z,987.26
2019-04-02T01:48:45.602Z,987.23
2019-04-02T01:49:47.302Z,987.25
2019-04-02T01:50:47.798Z,987.20
2019-04-02T01:51:46.009Z,987.23
2019-04-02T01:52:46.215Z,987.20
2019-04-02T01:53:48.299Z,987.21
2019-04-02T01:54:48.300Z,987.19
2019-04-02T01:55:46.744Z,987.14
2019-04-02T01:56:46.946Z,987.15
2019-04-02T01:57:50.086Z,987.11
2019-04-02T01:58:51.297Z,987.12
2019-04-02T01:59:49.267Z,987.10
2019-04-02T02:00:50.791Z,987.15
2019-04-02T02:01:47.902Z,987.11
2019-04-02T02:02:54.813Z,987.09
2019-04-02T02:03:51.810Z,987.10
2019-04-02T02:04:49.388Z,987.09
2019-04-02T02:05:48.606Z,987.07
2019-04-02T02:06:48.819Z,987.10
2019-04-02T02:07:50.027Z,987.08
2019-04-02T02:08:50.797Z,987.05
2019-04-02T02:09:49.419Z,987.06
2019-04-02T02:10:49.976Z,987.02
2019-04-02T02:11:50.800Z,987.03
2019-04-02T02:12:56.000Z,986.95
2019-04-02T02:13:50.197Z,986.96
2019-04-02T02:14:57.313Z,986.97
2019-04-02T02:15:51.548Z,986.92
2019-04-02T02:16:51.674Z,986.90
2019-04-02T02:17:52.603Z,986.90
2019-04-02T02:18:52.816Z,986.95
2019-04-02T02:19:51.034Z,986.95
2019-04-02T02:20:51.228Z,986.91
2019-04-02T02:21:53.307Z,986.90
2019-04-02T02:22:51.631Z,986.93
2019-04-02T02:23:53.801Z,986.87
2019-04-02T02:24:53.030Z,986.90
2019-04-02T02:25:53.181Z,986.88
2019-04-02T02:26:57.344Z,986.88
2019-04-02T02:27:52.603Z,986.85
2019-04-02T02:28:53.669Z,986.85
2019-04-02T02:29:56.811Z,986.85
2019-04-02T02:30:53.030Z,986.80
2019-04-02T02:31:53.120Z,986.84
2019-04-02T02:32:56.306Z,986.83
2019-04-02T02:33:55.302Z,986.86
2019-04-02T02:34:53.623Z,986.86
2019-04-02T02:35:54.838Z,986.80
2019-04-02T02:36:55.803Z,986.79
2019-04-02T02:37:57.837Z,986.79
2019-04-02T02:38:54.460Z,986.80
2019-04-02T02:39:56.344Z,986.75
2019-04-02T02:41:02.269Z,986.72
2019-04-02T02:41:56.798Z,986.71
2019-04-02T02:42:58.818Z,986.72
2019-04-02T02:43:56.805Z,986.71
2019-04-02T02:44:55.377Z,986.68
2019-04-02T02:45:55.587Z,986.66
2019-04-02T02:46:57.301Z,986.61
2019-04-02T02:48:01.996Z,986.56
2019-04-02T02:48:57.769Z,986.57
2019-04-02T02:49:58.299Z,986.58
2019-04-02T02:50:58.346Z,986.55
2019-04-02T02:51:58.298Z,986.55
2019-04-02T02:52:56.805Z,986.56
2019-04-02T02:53:56.924Z,986.49
2019-04-02T02:55:04.809Z,986.49
2019-04-02T02:55:57.243Z,986.48
2019-04-02T02:56:59.350Z,986.44
2019-04-02T02:57:59.305Z,986.46
2019-04-02T02:58:58.756Z,986.45
2019-04-02T02:59:57.978Z,986.45
2019-04-02T03:01:05.802Z,986.46
2019-04-02T03:02:00.300Z,986.44
2019-04-02T03:02:59.922Z,986.40
2019-04-02T03:03:59.927Z,986.41
2019-04-02T03:05:00.607Z,986.41
2019-04-02T03:06:14.832Z,986.34
2019-04-02T03:07:03.762Z,986.34
2019-04-02T03:08:02.852Z,986.37
2019-04-02T03:09:03.306Z,986.35
2019-04-02T03:10:04.389Z,986.37
2019-04-02T03:11:01.799Z,986.31
2019-04-02T03:12:01.126Z,986.33
2019-04-02T03:13:01.335Z,986.31
2019-04-02T03:14:01.262Z,986.30
2019-04-02T03:15:02.296Z,986.33
2019-04-02T03:16:01.903Z,986.31
2019-04-02T03:17:02.345Z,986.34
2019-04-02T03:18:03.745Z,986.29
2019-04-02T03:19:01.320Z,986.32
2019-04-02T03:20:03.295Z,986.35
2019-04-02T03:21:03.302Z,986.29
2019-04-02T03:22:03.818Z,986.27
2019-04-02T03:23:03.801Z,986.22
2019-04-02T03:24:03.846Z,986.25
2019-04-02T03:25:02.465Z,986.30
2019-04-02T03:26:06.334Z,986.29
2019-04-02T03:27:02.808Z,986.31
2019-04-02T03:28:03.005Z,986.28
2019-04-02T03:29:04.810Z,986.28
2019-04-02T03:30:05.310Z,986.27
2019-04-02T03:31:05.348Z,986.22
2019-04-02T03:32:10.441Z,986.24
2019-04-02T03:33:03.897Z,986.25
2019-04-02T03:34:11.367Z,986.26
2019-04-02T03:35:04.274Z,986.28
2019-04-02T03:36:05.131Z,986.22
2019-04-02T03:37:05.796Z,986.23
2019-04-02T03:38:07.472Z,986.22
2019-04-02T03:39:07.186Z,986.22
2019-04-02T03:40:08.979Z,986.18
2019-04-02T03:41:06.808Z,986.21
2019-04-02T03:42:10.315Z,986.18
2019-04-02T03:43:05.477Z,986.15
2019-04-02T03:44:09.308Z,986.15
2019-04-02T03:45:07.794Z,986.16
2019-04-02T03:46:06.040Z,986.15
2019-04-02T03:47:08.748Z,986.11
2019-04-02T03:48:08.297Z,986.11
2019-04-02T03:49:07.287Z,986.05
2019-04-02T03:50:06.776Z,986.09
2019-04-02T03:51:07.874Z,986.08
2019-04-02T03:52:08.096Z,986.03
2019-04-02T03:53:14.795Z,986.02
2019-04-02T03:54:08.495Z,986.01
2019-04-02T03:55:07.700Z,985.97
2019-04-02T03:56:07.911Z,985.97
2019-04-02T03:57:09.128Z,985.97
2019-04-02T03:58:09.241Z,985.95
2019-04-02T03:59:08.339Z,985.92
2019-04-02T04:00:10.299Z,985.90
2019-04-02T04:01:08.766Z,985.90
2019-04-02T04:02:37.793Z,985.83
2019-04-02T04:03:19.597Z,985.82
2019-04-02T04:04:25.903Z,985.86
2019-04-02T04:05:17.292Z,985.83
2019-04-02T04:06:09.621Z,985.78
2019-04-02T04:07:10.759Z,985.81
2019-04-02T04:08:12.754Z,985.79
2019-04-02T04:09:11.798Z,985.75
2019-04-02T04:10:16.820Z,985.78
2019-04-02T04:11:11.641Z,985.84
2019-04-02T04:12:18.328Z,985.78
2019-04-02T04:13:13.147Z,985.78
2019-04-02T04:14:11.021Z,985.77
2019-04-02T04:15:15.247Z,985.78
2019-04-02T04:16:12.412Z,985.77
2019-04-02T04:17:14.265Z,985.74
2019-04-02T04:18:13.295Z,985.76
2019-04-02T04:19:11.889Z,985.73
2019-04-02T04:20:41.182Z,985.75
2019-04-02T04:21:12.207Z,985.75
2019-04-02T04:22:14.345Z,985.74
2019-04-02T04:23:12.606Z,985.72
2019-04-02T04:24:12.723Z,985.76
2019-04-02T04:25:14.798Z,985.75
2019-04-02T04:26:14.800Z,985.75
2019-04-02T04:27:14.792Z,985.76
2019-04-02T04:28:14.799Z,985.74
2019-04-02T04:29:15.296Z,985.80
2019-04-02T04:30:15.313Z,985.81
2019-04-02T04:31:25.533Z,985.80
2019-04-02T04:32:15.830Z,985.80
2019-04-02T04:33:15.797Z,985.79
2019-04-02T04:34:15.262Z,985.77
2019-04-02T04:35:16.306Z,985.76
2019-04-02T04:36:15.532Z,985.81
2019-04-02T04:37:18.254Z,985.80
2019-04-02T04:38:16.768Z,985.75
2019-04-02T04:39:22.798Z,985.73
2019-04-02T04:40:30.793Z,985.73
2019-04-02T04:41:16.791Z,985.69
2019-04-02T04:42:15.479Z,985.69
2019-04-02T04:43:18.249Z,985.71
2019-04-02T04:44:20.913Z,985.68
2019-04-02T04:45:21.467Z,985.68
2019-04-02T04:46:15.991Z,985.73
2019-04-02T04:47:18.520Z,985.76
2019-04-02T04:48:18.296Z,985.72
2019-04-02T04:49:18.293Z,985.70
2019-04-02T04:50:17.251Z,985.68
2019-04-02T04:51:18.795Z,985.67
2019-04-02T04:52:32.839Z,985.67
2019-04-02T04:53:18.751Z,985.67
2019-04-02T04:54:19.293Z,985.61
2019-04-02T04:55:18.534Z,985.65
2019-04-02T04:56:19.319Z,985.62
2019-04-02T04:57:17.791Z,985.63
2019-04-02T04:58:54.796Z,985.58
2019-04-02T04:59:19.234Z,985.59
2019-04-02T05:00:24.320Z,985.57
2019-04-02T05:01:20.282Z,985.57
2019-04-02T05:02:36.247Z,985.58
2019-04-02T05:03:21.794Z,985.55
2019-04-02T05:04:19.288Z,985.53
2019-04-02T05:05:41.392Z,985.55
2019-04-02T05:06:23.297Z,985.50
2019-04-02T05:07:23.315Z,985.55
2019-04-02T05:08:20.943Z,985.52
2019-04-02T05:09:21.789Z,985.56
2019-04-02T05:10:21.805Z,985.53
2019-04-02T05:11:29.265Z,985.56
2019-04-02T05:12:22.292Z,985.55
2019-04-02T05:13:20.754Z,985.57
2019-04-02T05:14:24.812Z,985.52
2019-04-02T05:15:24.811Z,985.55
2019-04-02T05:16:24.797Z,985.55
2019-04-02T05:17:29.310Z,985.53
2019-04-02T05:18:23.299Z,985.48
2019-04-02T05:19:21.738Z,985.51
2019-04-02T05:20:21.948Z,985.51
2019-04-02T05:21:23.822Z,985.52
2019-04-02T05:22:22.283Z,985.49
2019-04-02T05:23:29.323Z,985.51
2019-04-02T05:24:27.306Z,985.50
2019-04-02T05:25:24.811Z,985.53
2019-04-02T05:26:26.801Z,985.49
2019-04-02T05:27:23.233Z,985.52
2019-04-02T05:28:26.351Z,985.52
2019-04-02T05:29:26.294Z,985.51
2019-04-02T05:30:23.753Z,985.51
2019-04-02T05:31:39.803Z,985.52
2019-04-02T05:32:25.799Z,985.53
2019-04-02T05:33:25.807Z,985.49
2019-04-02T05:34:27.119Z,985.49
2019-04-02T05:35:26.338Z,985.44
2019-04-02T05:36:26.294Z,985.45
2019-04-02T05:37:26.840Z,985.39
2019-04-02T05:38:26.799Z,985.38
2019-04-02T05:39:27.339Z,985.41
2019-04-02T05:40:28.251Z,985.34
2019-04-02T05:41:25.724Z,985.33
2019-04-02T05:42:29.811Z,985.36
2019-04-02T05:43:27.833Z,985.41
2019-04-02T05:44:27.792Z,985.40
2019-04-02T05:45:30.296Z,985.35
2019-04-02T05:46:28.292Z,985.36
2019-04-02T05:47:28.307Z,985.36
2019-04-02T05:48:38.865Z,985.38
2019-04-02T05:49:29.300Z,985.35
2019-04-02T05:50:27.356Z,985.36
2019-04-02T05:51:29.295Z,985.31
2019-04-02T05:52:29.301Z,985.32
2019-04-02T05:53:30.608Z,985.30
2019-04-02T05:54:29.638Z,985.29
2019-04-02T05:55:29.796Z,985.28
2019-04-02T05:56:44.497Z,985.27
2019-04-02T05:57:29.402Z,985.28
2019-04-02T05:58:35.327Z,985.19
2019-04-02T05:59:30.305Z,985.23
2019-04-02T06:00:30.815Z,985.21
2019-04-02T06:01:30.829Z,985.19
2019-04-02T06:02:30.824Z,985.23
2019-04-02T06:03:29.287Z,985.20
2019-04-02T06:04:29.498Z,985.16
2019-04-02T06:05:33.923Z,985.19
2019-04-02T06:06:32.750Z,985.19
2019-04-02T06:07:30.112Z,985.16
2019-04-02T06:08:31.824Z,985.16
2019-04-02T06:09:38.293Z,985.16
2019-04-02T06:10:32.608Z,985.18
2019-04-02T06:11:32.259Z,985.16
2019-04-02T06:12:31.033Z,985.10
2019-04-02T06:13:32.794Z,985.07
2019-04-02T06:14:31.390Z,985.08
2019-04-02T06:15:31.577Z,985.07
2019-04-02T06:16:33.299Z,985.08
2019-04-02T06:17:31.997Z,985.06
2019-04-02T06:18:32.220Z,985.04
2019-04-02T06:19:46.451Z,985.04
2019-04-02T06:20:32.642Z,985.02
2019-04-02T06:21:36.795Z,985.07
2019-04-02T06:22:33.003Z,985.08
2019-04-02T06:23:33.209Z,984.99
2019-04-02T06:24:37.296Z,985.01
2019-04-02T06:25:34.636Z,984.95
2019-04-02T06:26:33.832Z,984.98
2019-04-02T06:27:34.040Z,985.00
2019-04-02T06:28:34.255Z,985.02
2019-04-02T06:29:34.456Z,984.98
2019-04-02T06:30:36.295Z,985.02
2019-04-02T06:31:34.869Z,985.01
2019-04-02T06:32:36.821Z,984.96
2019-04-02T06:33:35.280Z,985.00
2019-04-02T06:34:35.491Z,984.99
2019-04-02T06:35:35.704Z,984.95
2019-04-02T06:36:37.796Z,984.96
2019-04-02T06:37:36.150Z,984.98
2019-04-02T06:38:40.293Z,984.92
2019-04-02T06:39:36.492Z,984.95
2019-04-02T06:40:36.714Z,984.87
2019-04-02T06:41:36.922Z,984.86
2019-04-02T06:42:38.861Z,984.83
2019-04-02T06:43:40.080Z,984.82
2019-04-02T06:44:37.556Z,984.85
2019-04-02T06:45:37.764Z,984.83
2019-04-02T06:46:37.980Z,984.75
2019-04-02T06:47:39.796Z,984.78
2019-04-02T06:48:40.301Z,984.77
2019-04-02T06:49:38.509Z,984.79
2019-04-02T06:50:38.721Z,984.75
2019-04-02T06:51:41.057Z,984.76
2019-04-02T06:52:39.171Z,984.77
2019-04-02T06:53:39.357Z,984.79
2019-04-02T06:54:39.578Z,984.79
2019-04-02T06:55:39.804Z,984.83
2019-04-02T06:56:40.007Z,985.03
2019-04-02T06:57:41.490Z,985.34
2019-04-02T06:58:40.453Z,985.43
2019-04-02T06:59:44.293Z,985.35
2019-04-02T07:00:40.888Z,985.26
2019-04-02T07:01:41.111Z,985.20
2019-04-02T07:02:41.324Z,985.13
2019-04-02T07:03:43.296Z,985.05
2019-04-02T07:04:41.751Z,984.98
2019-04-02T07:05:43.799Z,984.94
2019-04-02T07:06:42.000Z,984.93
2019-04-02T07:07:42.491Z,984.87
2019-04-02T07:08:47.319Z,984.77
2019-04-02T07:09:45.358Z,984.87
2019-04-02T07:10:44.802Z,984.88
2019-04-02T07:11:46.846Z,984.88
2019-04-02T07:12:44.815Z,984.82
2019-04-02T07:13:43.323Z,984.85
2019-04-02T07:14:46.332Z,984.81
2019-04-02T07:15:45.158Z,984.80
2019-04-02T07:16:45.797Z,984.79
2019-04-02T07:17:44.153Z,984.82
2019-04-02T07:18:46.298Z,984.76
2019-04-02T07:19:44.505Z,984.78
2019-04-02T07:20:48.301Z,984.77
2019-04-02T07:21:44.910Z,984.81
2019-04-02T07:22:45.141Z,984.83
2019-04-02T07:23:49.294Z,984.81
2019-04-02T07:24:47.305Z,984.88
2019-04-02T07:25:49.305Z,984.91
2019-04-02T07:26:45.916Z,984.93
2019-04-02T07:27:46.106Z,984.86
2019-04-02T07:28:48.338Z,984.88
2019-04-02T07:29:50.308Z,984.83
2019-04-02T07:30:48.786Z,984.84
2019-04-02T07:31:49.755Z,984.78
2019-04-02T07:32:51.758Z,984.79
2019-04-02T07:33:48.108Z,984.82
2019-04-02T07:35:04.251Z,984.86
2019-04-02T07:35:55.300Z,984.80
2019-04-02T07:36:47.634Z,984.76
2019-04-02T07:37:55.800Z,984.65
2019-04-02T07:38:48.049Z,984.66
2019-04-02T07:39:48.206Z,984.56
2019-04-02T07:40:50.298Z,984.51
2019-04-02T07:41:49.284Z,984.45
2019-04-02T07:42:50.301Z,984.44
2019-04-02T07:44:12.263Z,984.37
2019-04-02T07:44:48.976Z,984.38
2019-04-02T07:45:49.199Z,984.35
2019-04-02T07:46:49.675Z,984.36
2019-04-02T07:48:00.484Z,984.35
2019-04-02T07:48:49.868Z,984.41
2019-04-02T07:49:50.903Z,984.46
2019-04-02T07:50:51.007Z,984.45
2019-04-02T07:51:54.272Z,984.52
2019-04-02T07:53:06.298Z,984.48
2019-04-02T07:53:54.410Z,984.46
2019-04-02T07:56:25.408Z,984.59
2019-04-02T07:57:26.440Z,984.44
2019-04-02T07:58:23.792Z,984.44
2019-04-02T07:59:25.910Z,984.40
2019-04-02T08:00:24.242Z,984.41
2019-04-02T08:01:33.846Z,984.18
2019-04-02T08:02:26.390Z,984.20
2019-04-02T08:03:26.925Z,984.16
2019-04-02T08:04:25.155Z,984.14
2019-04-02T08:05:27.368Z,984.18
2019-04-02T08:06:32.776Z,984.11
2019-04-02T08:07:25.729Z,984.13
2019-04-02T08:08:27.893Z,984.22
2019-04-02T08:09:26.100Z,984.15
2019-04-02T08:10:26.316Z,984.21
2019-04-02T08:11:26.545Z,984.20
2019-04-02T08:12:30.420Z,984.30
2019-04-02T08:13:34.893Z,984.27
2019-04-02T08:14:28.892Z,984.28
2019-04-02T08:15:27.244Z,984.19
2019-04-02T08:16:33.425Z,984.09
2019-04-02T08:17:34.398Z,984.11
2019-04-02T08:18:28.853Z,984.14
2019-04-02T08:19:31.423Z,984.09
2019-04-02T08:20:52.223Z,984.09
2019-04-02T08:21:34.900Z,984.00
2019-04-02T08:22:31.354Z,983.99
2019-04-02T08:23:29.291Z,984.03
2019-04-02T08:24:30.968Z,983.99
2019-04-02T08:25:30.905Z,983.88
2019-04-02T08:26:32.999Z,983.94
2019-04-02T08:27:29.627Z,983.83
2019-04-02T08:28:31.868Z,983.89
2019-04-02T08:29:32.230Z,983.92
2019-04-02T08:30:30.202Z,983.94
2019-04-02T08:31:31.138Z,983.95
2019-04-02T08:32:30.573Z,983.96
2019-04-02T08:33:59.401Z,984.01
2019-04-02T08:34:31.411Z,984.02
2019-04-02T08:35:34.893Z,984.05
2019-04-02T08:37:07.895Z,983.98
2019-04-02T08:37:37.551Z,983.90
2019-04-02T08:38:33.401Z,983.93
2019-04-02T08:39:33.850Z,983.98
2019-04-02T08:40:32.873Z,983.96
2019-04-02T08:41:35.897Z,983.90
2019-04-02T08:42:32.355Z,983.93
2019-04-02T08:43:35.502Z,983.96
2019-04-02T08:44:34.401Z,983.90
2019-04-02T08:45:34.401Z,983.88
2019-04-02T08:46:33.862Z,983.81
2019-04-02T08:47:35.895Z,983.85
2019-04-02T08:48:40.896Z,983.81
2019-04-02T08:49:33.519Z,983.81
2019-04-02T08:50:33.621Z,983.80
2019-04-02T08:51:35.444Z,983.74
2019-04-02T08:52:34.010Z,983.80
2019-04-02T08:53:34.288Z,983.83
2019-04-02T08:54:36.877Z,983.79
2019-04-02T08:55:36.403Z,983.80
2019-04-02T08:56:38.406Z,983.70
2019-04-02T08:57:34.995Z,983.72
2019-04-02T08:58:37.333Z,983.81
2019-04-02T08:59:36.384Z,983.86
2019-04-02T09:00:35.623Z,983.77
2019-04-02T09:01:35.848Z,983.78
2019-04-02T09:02:53.862Z,983.74
2019-04-02T09:03:37.941Z,983.51
2019-04-02T09:04:36.404Z,983.35
2019-04-02T09:05:40.176Z,983.40
2019-04-02T09:06:46.855Z,983.42
2019-04-02T09:07:37.878Z,983.24
2019-04-02T09:08:39.487Z,983.33
2019-04-02T09:09:37.277Z,983.24
2019-04-02T09:10:37.464Z,983.22
2019-04-02T09:11:40.297Z,983.22
2019-04-02T09:12:38.917Z,983.22
2019-04-02T09:13:38.264Z,983.21
2019-04-02T09:14:41.901Z,983.41
2019-04-02T09:15:41.865Z,983.23
2019-04-02T09:16:41.361Z,983.39
2019-04-02T09:17:39.857Z,983.42
2019-04-02T09:18:40.902Z,983.43
2019-04-02T09:19:45.933Z,983.43
2019-04-02T09:21:05.868Z,983.42
2019-04-02T09:21:43.748Z,983.48
2019-04-02T09:22:41.307Z,983.48
2019-04-02T09:23:41.409Z,983.36
2019-04-02T09:24:40.000Z,983.34
2019-04-02T09:25:41.218Z,983.36
2019-04-02T09:26:40.424Z,983.24
2019-04-02T09:27:41.399Z,983.28
2019-04-02T09:28:56.405Z,983.26
2019-04-02T09:29:56.902Z,983.26
2019-04-02T09:30:48.262Z,983.27
2019-04-02T09:32:03.420Z,983.19
2019-04-02T09:32:41.602Z,983.14
2019-04-02T09:33:42.891Z,983.24
2019-04-02T09:34:42.007Z,983.25
2019-04-02T09:35:43.915Z,983.28
2019-04-02T09:36:43.902Z,983.24
2019-04-02T09:37:42.630Z,983.24
2019-04-02T09:38:44.411Z,983.10
2019-04-02T09:39:43.665Z,983.17
2019-04-02T09:40:43.212Z,983.13
2019-04-02T09:41:45.673Z,983.10
2019-04-02T09:42:45.416Z,982.99
2019-04-02T09:43:56.397Z,982.99
2019-04-02T09:44:45.030Z,982.95
2019-04-02T09:45:44.134Z,982.99
2019-04-02T09:46:44.634Z,982.95
2019-04-02T09:47:46.074Z,982.89
2019-04-02T09:48:46.424Z,982.95
2019-04-02T09:49:45.918Z,982.94
2019-04-02T09:50:46.868Z,982.93
2019-04-02T09:51:46.939Z,982.91
2019-04-02T09:52:46.212Z,982.94
2019-04-02T09:53:45.636Z,982.96
2019-04-02T09:54:47.425Z,982.92
2019-04-02T09:55:49.242Z,982.81
2019-04-02T09:56:46.268Z,982.68
2019-04-02T09:57:46.378Z,982.64
2019-04-02T09:58:47.883Z,982.84
2019-04-02T09:59:48.452Z,982.71
2019-04-02T10:00:48.858Z,982.76
2019-04-02T10:01:48.117Z,982.71
2019-04-02T10:02:50.902Z,982.72
2019-04-02T10:03:50.690Z,982.69
2019-04-02T10:04:49.406Z,982.64
2019-04-02T10:05:49.410Z,982.61
2019-04-02T10:06:50.922Z,982.52
2019-04-02T10:08:12.951Z,982.55
2019-04-02T10:08:49.352Z,982.47
2019-04-02T10:09:53.333Z,982.42
2019-04-02T10:10:52.682Z,982.40
2019-04-02T10:11:54.748Z,982.34
2019-04-02T10:12:52.698Z,982.30
2019-04-02T10:13:50.922Z,982.31
2019-04-02T10:14:55.461Z,982.31
2019-04-02T10:16:12.409Z,982.24
2019-04-02T10:16:51.912Z,982.20
2019-04-02T10:17:51.941Z,982.20
2019-04-02T10:18:52.603Z,982.16
2019-04-02T10:19:51.419Z,982.15
2019-04-02T10:20:52.008Z,982.24
2019-04-02T10:21:52.910Z,982.16
2019-04-02T10:22:52.907Z,982.16
2019-04-02T10:23:55.578Z,982.17
2019-04-02T10:25:08.245Z,982.21
2019-04-02T10:25:53.507Z,982.02
2019-04-02T10:26:53.015Z,982.00
2019-04-02T10:27:53.910Z,982.06
2019-04-02T10:28:53.628Z,981.93
2019-04-02T10:29:56.162Z,981.98
2019-04-02T10:30:56.413Z,982.09
2019-04-02T10:31:54.429Z,981.91
2019-04-02T10:32:56.374Z,981.77
2019-04-02T10:33:54.947Z,981.69
2019-04-02T10:34:57.461Z,981.87
2019-04-02T10:35:57.259Z,981.78
2019-04-02T10:36:56.778Z,981.87
2019-04-02T10:38:02.021Z,981.75
2019-04-02T10:38:54.098Z,981.86
2019-04-02T10:39:56.263Z,981.90
2019-04-02T10:40:58.409Z,981.80
2019-04-02T10:42:10.415Z,981.83
2019-04-02T10:42:56.911Z,981.77
2019-04-02T10:43:55.133Z,981.78
2019-04-02T10:44:56.942Z,981.77
2019-04-02T10:45:55.559Z,981.78
2019-04-02T10:46:57.409Z,981.70
2019-04-02T10:48:18.050Z,981.61
2019-04-02T10:49:12.136Z,981.67
2019-04-02T10:49:58.906Z,981.63
2019-04-02T10:51:00.639Z,981.58
2019-04-02T10:52:01.275Z,981.58
2019-04-02T10:52:59.387Z,981.57
2019-04-02T10:53:57.111Z,981.59
2019-04-02T10:54:59.747Z,981.61
2019-04-02T10:55:58.701Z,981.57
2019-04-02T10:56:59.542Z,981.47
2019-04-02T10:58:07.780Z,981.55
2019-04-02T10:59:00.083Z,981.53
2019-04-02T10:59:58.378Z,981.43
2019-04-02T11:00:58.510Z,981.53
2019-04-02T11:02:04.619Z,981.55
2019-04-02T11:02:59.186Z,981.42
2019-04-02T11:04:00.390Z,981.53
2019-04-02T11:05:02.553Z,981.52
2019-04-02T11:06:07.297Z,981.49
2019-04-02T11:07:00.928Z,981.46
2019-04-02T11:08:02.498Z,981.40
2019-04-02T11:09:04.364Z,981.46
2019-04-02T11:10:01.920Z,981.45
2019-04-02T11:11:02.026Z,981.43
2019-04-02T11:12:03.139Z,981.44
2019-04-02T11:13:03.247Z,981.43
2019-04-02T11:14:08.198Z,981.36
2019-04-02T11:15:05.589Z,981.22
2019-04-02T11:16:06.885Z,981.23
2019-04-02T11:17:05.753Z,981.13
2019-04-02T11:18:07.459Z,981.08
2019-04-02T11:19:10.150Z,981.09
2019-04-02T11:20:02.178Z,981.14
2019-04-02T11:21:08.365Z,981.04
2019-04-02T11:22:06.875Z,981.03
2019-04-02T11:23:06.375Z,981.01
2019-04-02T11:24:06.807Z,981.03
2019-04-02T11:25:04.928Z,981.02
2019-04-02T11:26:04.910Z,981.00
2019-04-02T11:27:03.506Z,980.89
2019-04-02T11:28:04.740Z,980.92
2019-04-02T11:29:05.910Z,980.87
2019-04-02T11:30:10.921Z,980.87
2019-04-02T11:31:07.915Z,980.91
2019-04-02T11:32:09.871Z,980.89
2019-04-02T11:33:07.377Z,980.76
2019-04-02T11:34:05.896Z,980.82
2019-04-02T11:35:06.573Z,980.68
2019-04-02T11:36:06.388Z,980.64
2019-04-02T11:37:14.731Z,980.65
2019-04-02T11:38:13.411Z,980.66
2019-04-02T11:39:07.410Z,980.59
2019-04-02T11:40:07.915Z,980.54
2019-04-02T11:41:06.127Z,980.49
2019-04-02T11:42:06.354Z,980.45
2019-04-02T11:43:06.614Z,980.35
2019-04-02T11:44:08.411Z,980.29
2019-04-02T11:45:06.889Z,980.28
2019-04-02T11:46:08.372Z,980.32
2019-04-02T11:47:10.367Z,980.34
2019-04-02T11:48:09.427Z,980.33
2019-04-02T11:49:09.468Z,980.29
2019-04-02T11:50:11.411Z,980.36
2019-04-02T11:51:09.900Z,980.32
2019-04-02T11:52:09.923Z,980.35
2019-04-02T11:53:15.916Z,980.30
2019-04-02T11:54:19.250Z,980.23
2019-04-02T11:55:10.462Z,980.28
2019-04-02T11:56:09.091Z,980.23
2019-04-02T11:57:10.917Z,980.23
2019-04-02T11:58:16.655Z,980.18
2019-04-02T11:59:32.422Z,980.29
2019-04-02T12:00:15.378Z,980.28
2019-04-02T12:01:10.103Z,980.28
2019-04-02T12:02:11.326Z,980.31
2019-04-02T12:03:10.544Z,980.24
2019-04-02T12:04:11.424Z,980.23
2019-04-02T12:05:20.841Z,980.16
2019-04-02T12:06:13.413Z,980.02
2019-04-02T12:07:14.916Z,979.94
2019-04-02T12:08:15.564Z,979.98
2019-04-02T12:09:13.418Z,980.13
2019-04-02T12:10:13.420Z,980.06
2019-04-02T12:11:11.877Z,980.06
2019-04-02T12:12:13.919Z,979.98
2019-04-02T12:13:12.251Z,979.95
2019-04-02T12:14:16.417Z,979.93
2019-04-02T12:15:39.886Z,979.87
2019-04-02T12:16:15.776Z,979.89
2019-04-02T12:17:13.652Z,979.81
2019-04-02T12:18:14.433Z,979.81
2019-04-02T12:19:14.495Z,979.89
2019-04-02T12:20:15.396Z,979.89
2019-04-02T12:21:17.172Z,979.88
2019-04-02T12:22:16.393Z,979.91
2019-04-02T12:23:14.277Z,979.89
2019-04-02T12:24:15.420Z,980.01
2019-04-02T12:25:22.429Z,979.99
2019-04-02T12:26:18.802Z,979.86
2019-04-02T12:27:15.004Z,979.81
2019-04-02T12:28:15.257Z,979.77
2019-04-02T12:29:17.877Z,979.74
2019-04-02T12:30:15.478Z,979.72
2019-04-02T12:31:22.578Z,979.70
2019-04-02T12:32:16.906Z,979.69